Thunder radar more information blitzortung!


Radar de pluja more information rain snow radar


Visita la nostra xarxa de llocs de meteo:

Template documentation
and downloads

And another site



No particular awareness of the weather is required.    There are no Weather-warnings

Pagina Historial Weather Underground text

Diari Resum Agost 20, 2017 Unitats:  Imperial    Mètric   Tant
« Previous Dia
SegĂźent Dia »
Diari Setmana Mensual Anual Personalitzada
  Maxima: Minima: Media:
Temperatura: 87.4 °F 69.1 °F 76.5 °F
Punt de rosada: 67.1 °F 59.7 °F 63.9 °F
Humitat: 85 % 43 % 67 %
Wind Speed: 13.8 mph 0 mph 3.4 mph
RĂ fegues de vent: 13.8 mph - -
Vent:- - SSW
Pression baro: 30.1 in 30 in -
Precipitacions: 0 in    
Historical Graphs
 
 
Dades de taula per Agost 20, 2017
Temps Temperatura Punt de rosada Pression baro Vent Wind Speed RĂ fegues de vent Humitat Rainfall Rate (Hourly)
00:03 73.2 °F 64 °F 30.1 in SW 2.3 mph 2.3 mph 73 % 0 in
00:08 73.2 °F 64 °F 30.1 in SW 2.3 mph 2.3 mph 73 % 0 in
00:13 73.2 °F 64 °F 30.1 in WSW 2.6 mph 2.6 mph 73 % 0 in
00:18 73.2 °F 64 °F 30.1 in WSW 1.4 mph 1.4 mph 73 % 0 in
00:23 73.2 °F 64 °F 30.1 in SW 2.4 mph   73 % 0 in
00:28 73.2 °F 64 °F 30.1 in West 2.3 mph 2.3 mph 73 % 0 in
00:33 73.2 °F 64 °F 30.1 in SW 2.3 mph 2.3 mph 73 % 0 in
00:38 73.2 °F 64.4 °F 30.1 in SW 1.2 mph 1.2 mph 74 % 0 in
00:43 73.2 °F 64.4 °F 30.1 in SW 2.3 mph 2.3 mph 74 % 0 in
00:49 73.2 °F 64 °F 30.1 in WSW 2.3 mph 2.3 mph 73 % 0 in
00:53 73.2 °F 64.4 °F 30.1 in SW 1.2 mph 1.2 mph 74 % 0 in
00:59 73.4 °F 64.2 °F 30.1 in West 2.3 mph 2.3 mph 73 % 0 in
01:04 73.2 °F 64.4 °F 30.1 in SW 2.3 mph 2.3 mph 74 % 0 in
01:09 73.2 °F 64.4 °F 30.1 in WSW 1.6 mph 1.6 mph 74 % 0 in
01:14 73.4 °F 64.2 °F 30.1 in WSW 1.4 mph 1.4 mph 73 % 0 in
01:19 73.4 °F 64.2 °F 30.1 in WSW 2.3 mph 2.3 mph 73 % 0 in
01:24 73.4 °F 64.6 °F 30.1 in Calm     74 % 0 in
01:29 73.4 °F 64.6 °F 30.1 in SW 1.2 mph   74 % 0 in
01:34 73.4 °F 64.2 °F 30.1 in WSW 2.3 mph 2.3 mph 73 % 0 in
01:39 73.4 °F 64.6 °F 30.1 in Calm     74 % 0 in
01:44 73.4 °F 64.6 °F 30.1 in WSW 1.2 mph   74 % 0 in
01:49 73.4 °F 64.6 °F 30.1 in West 1.4 mph   74 % 0 in
01:54 73.4 °F 64.6 °F 30.1 in SW 2.3 mph 2.3 mph 74 % 0 in
01:59 73.4 °F 64.6 °F 30.1 in WSW 0.9 mph   74 % 0 in
02:04 73.4 °F 64.6 °F 30.1 in WSW 1.4 mph   74 % 0 in
02:09 73.4 °F 64.6 °F 30.1 in WSW 2.3 mph 2.3 mph 74 % 0 in
02:14 73.4 °F 64.6 °F 30.1 in SW 2.3 mph 2.3 mph 74 % 0 in
02:19 73.4 °F 64.6 °F 30.1 in WSW 2.3 mph 2.3 mph 74 % 0 in
02:24 73.4 °F 64.6 °F 30.1 in SW 1.2 mph   74 % 0 in
02:29 73.4 °F 64.6 °F 30.1 in WSW 2.3 mph   74 % 0 in
02:34 73.4 °F 64.6 °F 30.1 in WSW 1.2 mph   74 % 0 in
02:39 73.4 °F 64.6 °F 30.1 in WSW 2.3 mph 2.3 mph 74 % 0 in
02:44 73.4 °F 64.6 °F 30 in Calm     74 % 0 in
02:49 73.4 °F 64.6 °F 30 in West 1.4 mph   74 % 0 in
02:54 73.4 °F 64.6 °F 30 in North 1.2 mph   74 % 0 in
02:59 73.4 °F 64.6 °F 30.1 in West 1.2 mph   74 % 0 in
03:04 73.4 °F 64.6 °F 30.1 in Calm     74 % 0 in
03:09 73.4 °F 64.6 °F 30.1 in Calm     74 % 0 in
03:14 73.2 °F 64.8 °F 30.1 in WSW 1.6 mph   75 % 0 in
03:19 73.2 °F 64.8 °F 30.1 in WSW 1.2 mph 1.2 mph 75 % 0 in
03:24 73.2 °F 64.8 °F 30.1 in SW 1.2 mph   75 % 0 in
03:29 73.2 °F 64.8 °F 30.1 in WSW 2.3 mph 2.3 mph 75 % 0 in
03:34 73.2 °F 64.8 °F 30.1 in SW 2.3 mph 2.3 mph 75 % 0 in
03:39 73.2 °F 64.8 °F 30.1 in WSW 2.3 mph 2.3 mph 75 % 0 in
03:44 73.2 °F 64.8 °F 30.1 in SSW 1.2 mph   75 % 0 in
03:49 73 °F 64.6 °F 30.1 in SW 2.4 mph 2.4 mph 75 % 0 in
03:54 73 °F 64.6 °F 30.1 in Calm     75 % 0 in
03:59 73 °F 64.6 °F 30.1 in SW 2.9 mph 2.9 mph 75 % 0 in
04:04 73 °F 64.9 °F 30.1 in SW 1.2 mph   76 % 0 in
04:09 73 °F 64.9 °F 30.1 in SW 2.3 mph 2.3 mph 76 % 0 in
04:14 73 °F 64.6 °F 30.1 in SW 3.5 mph 3.5 mph 75 % 0 in
04:19 72.9 °F 64.8 °F 30.1 in SW 2.3 mph 2.3 mph 76 % 0 in
04:24 72.9 °F 64.8 °F 30.1 in SW 2.3 mph 2.3 mph 76 % 0 in
04:29 72.9 °F 64.8 °F 30.1 in WSW 1.6 mph 1.6 mph 76 % 0 in
04:34 72.9 °F 64.8 °F 30.1 in West 2.3 mph 2.3 mph 76 % 0 in
04:39 72.9 °F 64.8 °F 30.1 in SW 1.2 mph   76 % 0 in
04:44 72.9 °F 64.8 °F 30.1 in SW 1.2 mph 1.2 mph 76 % 0 in
04:49 72.7 °F 64.8 °F 30.1 in WSW 2.3 mph 2.3 mph 76 % 0 in
04:54 72.5 °F 64.6 °F 30.1 in SW 2.3 mph   76 % 0 in
04:59 72.3 °F 64.8 °F 30 in SW 2 mph 2 mph 77 % 0 in
05:04 72.3 °F 64.8 °F 30 in SW 2.3 mph 2.3 mph 77 % 0 in
05:09 72.1 °F 64.6 °F 30 in SW 1.2 mph 1.2 mph 77 % 0 in
05:15 72 °F 64.4 °F 30.1 in WSW 2.3 mph 2.3 mph 77 % 0 in
05:19 72 °F 64.4 °F 30.1 in WSW 1.4 mph 1.4 mph 77 % 0 in
05:20 72 °F 64.4 °F 30.1 in WSW 1.4 mph 1.4 mph 77 % 0 in
05:23 72 °F 64.4 °F 30.1 in WSW 2.3 mph 2.3 mph 77 % 0 in
05:25 71.8 °F 64.2 °F 30.1 in West 2.3 mph   77 % 0 in
05:30 71.8 °F 64.6 °F 30 in WSW 2.4 mph 2.4 mph 78 % 0 in
05:35 71.8 °F 64.6 °F 30 in Calm     78 % 0 in
05:45 71.6 °F 64.4 °F 30.1 in WSW 1.2 mph 1.2 mph 78 % 0 in
05:50 71.4 °F 64.2 °F 30.1 in WSW 1.6 mph 1.6 mph 78 % 0 in
05:55 71.4 °F 64.2 °F 30.1 in WSW 2.3 mph 2.3 mph 78 % 0 in
06:00 71.4 °F 64.2 °F 30.1 in West 2.3 mph 2.3 mph 78 % 0 in
06:05 71.4 °F 64.6 °F 30.1 in WSW 2.3 mph 2.3 mph 79 % 0 in
06:10 71.4 °F 64.6 °F 30.1 in Calm     79 % 0 in
06:15 71.2 °F 64.4 °F 30.1 in West 1.2 mph 1.2 mph 79 % 0 in
06:20 71.2 °F 64.4 °F 30.1 in Calm     79 % 0 in
06:25 71.2 °F 64.8 °F 30.1 in West 1.2 mph 1.2 mph 80 % 0 in
06:27 71.2 °F 64.8 °F 30.1 in Calm     80 % 0 in
06:32 71.1 °F 64.6 °F 30.1 in Calm     80 % 0 in
06:37 71.1 °F 64.6 °F 30.1 in Calm     80 % 0 in
06:42 70.9 °F 64.4 °F 30.1 in West 1.2 mph   80 % 0 in
06:47 70.9 °F 64.4 °F 30.1 in West 1.2 mph 1.2 mph 80 % 0 in
06:52 70.9 °F 64.4 °F 30.1 in WSW 1.4 mph   80 % 0 in
06:57 70.9 °F 64.4 °F 30.1 in Calm     80 % 0 in
07:02 70.7 °F 64.2 °F 30.1 in Calm     80 % 0 in
07:07 70.5 °F 64.4 °F 30.1 in Calm     81 % 0 in
07:12 70.3 °F 64.2 °F 30.1 in Calm     81 % 0 in
07:17 70.3 °F 64.2 °F 30.1 in Calm     81 % 0 in
07:22 70.3 °F 64.2 °F 30.1 in Calm     81 % 0 in
07:27 70.3 °F 64.2 °F 30.1 in Calm     81 % 0 in
07:32 70.2 °F 64.4 °F 30.1 in Calm     82 % 0 in
07:37 70.2 °F 64.4 °F 30.1 in Calm     82 % 0 in
07:42 70.2 °F 64.4 °F 30.1 in Calm     82 % 0 in
07:47 70.2 °F 64.4 °F 30.1 in Calm     82 % 0 in
07:52 70.2 °F 64.4 °F 30.1 in Calm     82 % 0 in
07:57 70.2 °F 64.4 °F 30.1 in SW 1.2 mph 1.2 mph 82 % 0 in
08:02 70.2 °F 64.4 °F 30.1 in Calm     82 % 0 in
08:07 70.3 °F 64.6 °F 30.1 in Calm     82 % 0 in
08:12 70.5 °F 65.1 °F 30.1 in Calm     83 % 0 in
08:17 70.7 °F 64.9 °F 30.1 in NE 2.4 mph 2.4 mph 82 % 0 in
08:22 70.9 °F 65.1 °F 30.1 in East 2.3 mph 2.3 mph 82 % 0 in
08:27 70.9 °F 65.1 °F 30.1 in East 1.2 mph 1.2 mph 82 % 0 in
08:30 71.1 °F 65.3 °F 30.1 in Calm     82 % 0 in
08:35 71.1 °F 65.3 °F 30.1 in Calm     82 % 0 in
08:40 71.2 °F 65.5 °F 30.1 in SSW 1.2 mph   82 % 0 in
08:45 71.4 °F 65.7 °F 30.1 in Calm     82 % 0 in
08:50 71.6 °F 65.8 °F 30.1 in SW 2 mph 2 mph 82 % 0 in
08:55 72 °F 66.2 °F 30.1 in Calm     82 % 0 in
09:00 72.3 °F 65.8 °F 30.1 in SSW 2.3 mph 2.3 mph 80 % 0 in
09:01 72.3 °F 65.8 °F 30.1 in SW 2.3 mph 2.3 mph 80 % 0 in
09:06 72.5 °F 65.7 °F 30.1 in WSW 3.5 mph 3.5 mph 79 % 0 in
09:11 73 °F 66 °F 30.1 in WSW 2.4 mph 2.6 mph 79 % 0 in
09:16 74.1 °F 66.4 °F 30.1 in SW 2.9 mph 2.9 mph 77 % 0 in
09:21 74.5 °F 66.4 °F 30.1 in West 2.3 mph 2.3 mph 76 % 0 in
09:26 74.7 °F 66.2 °F 30.1 in SSW 2.3 mph 2.3 mph 75 % 0 in
09:31 74.8 °F 66.4 °F 30.1 in SW 2.3 mph   75 % 0 in
09:36 75 °F 66.2 °F 30.1 in WSW 2.3 mph 2.3 mph 74 % 0 in
09:41 75.4 °F 66 °F 30.1 in WSW 3.5 mph 3.5 mph 73 % 0 in
09:46 76.3 °F 66.6 °F 30.1 in SW 4.6 mph 4.6 mph 72 % 0 in
09:51 77 °F 66 °F 30.1 in WSW 3.5 mph 3.5 mph 69 % 0 in
09:56 77.4 °F 66 °F 30.1 in SW 3.5 mph 3.5 mph 68 % 0 in
10:01 78.1 °F 66.2 °F 30.1 in ENE 2.3 mph 2.3 mph 67 % 0 in
10:06 78.8 °F 66.6 °F 30.1 in WSW 2.3 mph   66 % 0 in
10:11 78.4 °F 66 °F 30.1 in SE 3.8 mph 3.8 mph 66 % 0 in
10:16 78.4 °F 65.7 °F 30.1 in WSW 3.5 mph 3.5 mph 65 % 0 in
10:21 78.8 °F 66 °F 30.1 in SW 4.6 mph 4.6 mph 65 % 0 in
10:26 78.8 °F 66 °F 30.1 in SSE 3.5 mph 3.5 mph 65 % 0 in
10:31 79.5 °F 66.4 °F 30.1 in SE 3.5 mph 3.5 mph 64 % 0 in
10:36 79 °F 64.8 °F 30.1 in East 4.6 mph 4.6 mph 62 % 0 in
10:41 79 °F 65.3 °F 30.1 in NNE 3.5 mph 3.5 mph 63 % 0 in
10:46 79.5 °F 65.5 °F 30.1 in NNW 3.1 mph 3.1 mph 62 % 0 in
10:51 80.4 °F 66.2 °F 30.1 in NNW 2.3 mph 2.3 mph 62 % 0 in
10:56 81 °F 66.2 °F 30.1 in SSW 3.6 mph 3.6 mph 61 % 0 in
11:01 79.9 °F 65.1 °F 30.1 in SW 3.8 mph 3.8 mph 61 % 0 in
11:06 79.9 °F 65.1 °F 30.1 in WNW 3.5 mph 3.5 mph 61 % 0 in
11:11 80.6 °F 65.5 °F 30.1 in ENE 3.8 mph 3.8 mph 60 % 0 in
11:16 81.3 °F 65.1 °F 30.1 in South 5.8 mph 5.8 mph 58 % 0 in
11:21 82.2 °F 66 °F 30.1 in ESE 3.5 mph 3.5 mph 58 % 0 in
11:26 83.5 °F 66.6 °F 30.1 in SE 2.3 mph 2.3 mph 57 % 0 in
11:31 84 °F 67.1 °F 30.1 in West 3.5 mph 3.5 mph 57 % 0 in
11:36 83.3 °F 66 °F 30.1 in SSW 4.6 mph 4.6 mph 56 % 0 in
11:41 83.3 °F 65.5 °F 30.1 in South 2.3 mph 2.3 mph 55 % 0 in
11:46 82.6 °F 63.7 °F 30.1 in ENE 5.8 mph 5.8 mph 53 % 0 in
11:51 80.8 °F 62.6 °F 30.1 in ENE 5.8 mph 5.8 mph 54 % 0 in
11:56 80.8 °F 63.7 °F 30.1 in South 2.6 mph 2.6 mph 56 % 0 in
12:01 81.1 °F 64.6 °F 30.1 in SSE 4.6 mph 4.6 mph 57 % 0 in
12:06 81.1 °F 64.6 °F 30.1 in East 4.6 mph 4.6 mph 57 % 0 in
12:11 80.4 °F 64.8 °F 30.1 in East 3.5 mph 3.5 mph 59 % 0 in
12:16 79.7 °F 64.6 °F 30.1 in SE 8.1 mph 8.1 mph 60 % 0 in
12:21 80.2 °F 65.1 °F 30.1 in ESE 10.2 mph 10.2 mph 60 % 0 in
12:26 80.1 °F 65.5 °F 30.1 in SSE 5.8 mph 5.8 mph 61 % 0 in
12:31 80.4 °F 65.7 °F 30.1 in East 6.9 mph 6.9 mph 61 % 0 in
12:36 80.6 °F 64.9 °F 30.1 in South 5.8 mph 5.8 mph 59 % 0 in
12:41 80.4 °F 65.7 °F 30.1 in SE 4.6 mph 4.6 mph 61 % 0 in
12:46 80.6 °F 65.5 °F 30.1 in ESE 4.6 mph 4.6 mph 60 % 0 in
12:51 79.7 °F 65.1 °F 30.1 in South 5.8 mph 5.8 mph 61 % 0 in
12:56 78.6 °F 64.6 °F 30.1 in West 11.5 mph 11.5 mph 62 % 0 in
13:01 77.9 °F 63.9 °F 30.1 in ENE 8.7 mph 8.7 mph 62 % 0 in
13:06 77.2 °F 63.7 °F 30.1 in SE 8.1 mph 8.1 mph 63 % 0 in
13:11 77.7 °F 64.6 °F 30.1 in SE 8.5 mph 8.5 mph 64 % 0 in
13:16 78.1 °F 64.6 °F 30.1 in SE 5.8 mph 5.8 mph 63 % 0 in
13:21 78.3 °F 65.1 °F 30.1 in SSE 9.2 mph 9.2 mph 64 % 0 in
13:26 80.4 °F 66.2 °F 30.1 in ESE 4.6 mph 4.6 mph 62 % 0 in
13:31 81.9 °F 66.6 °F 30.1 in SSE 4.9 mph 4.9 mph 60 % 0 in
13:36 81.9 °F 66.6 °F 30.1 in SSW 3.5 mph 3.5 mph 60 % 0 in
13:41 82.6 °F 66.7 °F 30.1 in SW 6.9 mph 6.9 mph 59 % 0 in
13:46 83.3 °F 66 °F 30.1 in SSW 4.6 mph 4.6 mph 56 % 0 in
13:51 83.8 °F 66.6 °F 30.1 in SSE 5.8 mph 5.8 mph 56 % 0 in
13:56 82.8 °F 64.9 °F 30.1 in SSW 6.9 mph 6.9 mph 55 % 0 in
14:01 83.8 °F 66.6 °F 30.1 in SSW 4.3 mph 4.3 mph 56 % 0 in
14:06 84 °F 64.9 °F 30.1 in SSE 11.5 mph 11.5 mph 53 % 0 in
14:11 84.9 °F 64.8 °F 30.1 in SSE 3.6 mph 3.6 mph 51 % 0 in
14:16 84.9 °F 64.2 °F 30.1 in SSE 8.1 mph 8.1 mph 50 % 0 in
14:21 85.6 °F 66 °F 30.1 in WSW 5.9 mph 5.9 mph 52 % 0 in
14:26 85.5 °F 64.8 °F 30.1 in South 3.5 mph 3.5 mph 50 % 0 in
14:31 86.7 °F 65.8 °F 30.1 in WSW 8.5 mph 8.5 mph 50 % 0 in
14:36 87.1 °F 64.9 °F 30.1 in ESE 6.9 mph 6.9 mph 48 % 0 in
14:41 86.2 °F 64.2 °F 30.1 in SSW 5.8 mph 5.8 mph 48 % 0 in
14:46 86.2 °F 64.2 °F 30.1 in South 6.9 mph 6.9 mph 48 % 0 in
14:51 85.8 °F 64.6 °F 30.1 in SSW 5.8 mph 5.8 mph 49 % 0 in
14:56 85.8 °F 64.6 °F 30.1 in SW 5.9 mph 5.9 mph 49 % 0 in
15:01 85.5 °F 63.5 °F 30.1 in ESE 4.6 mph 4.6 mph 48 % 0 in
15:06 85.8 °F 64.6 °F 30.1 in SW 5.8 mph 5.8 mph 49 % 0 in
15:11 85.8 °F 63.9 °F 30.1 in SSW 8.1 mph 8.1 mph 48 % 0 in
15:16 86.4 °F 63.9 °F 30.1 in SW 6.4 mph 6.4 mph 47 % 0 in
15:21 86.2 °F 63 °F 30.1 in SW 6.9 mph 6.9 mph 46 % 0 in
15:22 86 °F 62.2 °F 30.1 in SW 9 mph 9 mph 45 % 0 in
15:27 87.1 °F 63.1 °F 30.1 in WSW 3.5 mph 3.5 mph 45 % 0 in
15:32 86.4 °F 63.1 °F 30.1 in SW 9.2 mph 9.2 mph 46 % 0 in
15:37 87.4 °F 63.5 °F 30.1 in SSW 3.5 mph 3.6 mph 45 % 0 in
15:42 86.4 °F 63.1 °F 30.1 in ESE 5.8 mph 5.8 mph 46 % 0 in
15:47 86.4 °F 62.4 °F 30.1 in WSW 5.8 mph 5.8 mph 45 % 0 in
15:52 86.7 °F 62.2 °F 30.1 in WSW 6.9 mph 6.9 mph 44 % 0 in
15:57 86 °F 61 °F 30.1 in SW 10.4 mph 10.4 mph 43 % 0 in
16:02 85.5 °F 60.4 °F 30.1 in SSW 8.1 mph 8.1 mph 43 % 0 in
16:07 86 °F 61 °F 30.1 in WSW 12.3 mph 12.3 mph 43 % 0 in
16:12 85.6 °F 60.6 °F 30.1 in SSW 9.2 mph 9.2 mph 43 % 0 in
16:17 85.6 °F 60.6 °F 30.1 in SW 10.4 mph 10.4 mph 43 % 0 in
16:22 85.8 °F 60.6 °F 30.1 in WSW 11.5 mph 11.5 mph 43 % 0 in
16:27 85.5 °F 61.2 °F 30.1 in South 13.8 mph 13.8 mph 44 % 0 in
16:32 85.5 °F 60.4 °F 30.1 in SW 7.4 mph 7.4 mph 43 % 0 in
16:37 85.3 °F 60.3 °F 30.1 in SW 12.7 mph 12.7 mph 43 % 0 in
16:42 85.3 °F 60.3 °F 30.1 in South 4.6 mph 4.6 mph 43 % 0 in
16:47 85.1 °F 60.1 °F 30.1 in SW 7.8 mph 7.8 mph 43 % 0 in
16:52 85.5 °F 60.4 °F 30.1 in SW 8.1 mph 8.1 mph 43 % 0 in
16:57 84.9 °F 59.9 °F 30.1 in SW 8.1 mph 8.1 mph 43 % 0 in
17:02 84.7 °F 59.7 °F 30.1 in SSW 8.1 mph 8.1 mph 43 % 0 in
17:07 85.5 °F 60.4 °F 30.1 in SW 8.1 mph 8.1 mph 43 % 0 in
17:12 84.2 °F 59.9 °F 30.1 in SSW 5.8 mph 5.9 mph 44 % 0 in
17:17 85.3 °F 61 °F 30.1 in South 5.8 mph 5.8 mph 44 % 0 in
17:22 85.6 °F 61.9 °F 30.1 in WSW 8.1 mph 8.1 mph 45 % 0 in
17:27 85.1 °F 61.3 °F 30.1 in West 7.4 mph 7.4 mph 45 % 0 in
17:32 84.6 °F 61 °F 30.1 in SSW 6.9 mph 6.9 mph 45 % 0 in
17:37 85.3 °F 61.5 °F 30.1 in SW 9.4 mph 9.4 mph 45 % 0 in
17:42 84.4 °F 61.3 °F 30.1 in SW 2.3 mph 2.3 mph 46 % 0 in
17:47 83.8 °F 61.5 °F 30.1 in WSW 4.6 mph 4.6 mph 47 % 0 in
17:52 83.5 °F 61.7 °F 30.1 in SE 6.2 mph 6.2 mph 48 % 0 in
17:57 82.4 °F 60.6 °F 30.1 in SW 5.8 mph 5.8 mph 48 % 0 in
18:02 81.7 °F 60.6 °F 30.1 in SSW 5.8 mph 5.8 mph 49 % 0 in
18:07 81.9 °F 60.8 °F 30.1 in SSE 3.6 mph 3.6 mph 49 % 0 in
18:12 81.5 °F 61.2 °F 30.1 in ESE 4.6 mph 4.6 mph 50 % 0 in
18:17 81.1 °F 60.6 °F 30.1 in SW 8.1 mph 8.1 mph 50 % 0 in
18:22 81 °F 60.6 °F 30.1 in WSW 6.9 mph 6.9 mph 50 % 0 in
18:27 80.8 °F 60.4 °F 30.1 in West 4.6 mph 4.6 mph 50 % 0 in
18:32 80.6 °F 60.3 °F 30.1 in SW 8.5 mph 8.5 mph 50 % 0 in
18:37 80.8 °F 61 °F 30.1 in SW 6.9 mph 6.9 mph 51 % 0 in
18:42 80.8 °F 61 °F 30.1 in SW 6.9 mph 6.9 mph 51 % 0 in
18:47 80.8 °F 61 °F 30.1 in SW 3.5 mph 3.5 mph 51 % 0 in
18:52 80.8 °F 61.5 °F 30.1 in SSW 4.6 mph 4.6 mph 52 % 0 in
18:57 81.1 °F 61.3 °F 30.1 in SW 4.6 mph 4.6 mph 51 % 0 in
19:02 81 °F 61.2 °F 30.1 in WSW 5.8 mph 5.8 mph 51 % 0 in
19:07 81 °F 61.7 °F 30.1 in SW 3.5 mph 3.8 mph 52 % 0 in
19:12 80.8 °F 61.5 °F 30.1 in SSW 5.8 mph 5.8 mph 52 % 0 in
19:17 80.2 °F 61.5 °F 30.1 in South 4.6 mph 4.6 mph 53 % 0 in
19:22 80.1 °F 61.9 °F 30.1 in SW 2.3 mph 2.3 mph 54 % 0 in
19:27 79.7 °F 61.5 °F 30.1 in South 8.1 mph 8.1 mph 54 % 0 in
19:32 79.3 °F 61.9 °F 30.1 in SSE 8.1 mph 8.1 mph 55 % 0 in
19:37 79.2 °F 61.5 °F 30.1 in SSW 5.8 mph 5.8 mph 55 % 0 in
19:42 78.6 °F 61.5 °F 30.1 in WSW 8.1 mph 8.1 mph 56 % 0 in
19:43 78.6 °F 61.5 °F 30.1 in SW 3.5 mph 4.3 mph 56 % 0 in
19:48 78.4 °F 61.3 °F 30.1 in SW 5.8 mph 5.8 mph 56 % 0 in
19:53 78.3 °F 61.9 °F 30.1 in SSW 5.8 mph 5.8 mph 57 % 0 in
19:58 78.1 °F 61.5 °F 30 in SW 5.8 mph 5.8 mph 57 % 0 in
20:03 77.7 °F 61.3 °F 30 in SW 4.6 mph 4.6 mph 57 % 0 in
20:08 77.5 °F 61.2 °F 30 in SSW 5.8 mph 5.8 mph 57 % 0 in
20:13 77.2 °F 61.3 °F 30.1 in SW 5.8 mph 5.8 mph 58 % 0 in
20:15 71.8 °F 63.9 °F 30.1 in SW 1 mph 2 mph 76 % 0 in
20:18 77 °F 61.2 °F 30.1 in SW 5.8 mph 5.8 mph 58 % 0 in
20:23 76.8 °F 61.9 °F 30.1 in SW 5.8 mph 5.8 mph 60 % 0 in
20:25 71.8 °F 64.6 °F 30.1 in SW 1 mph 2 mph 78 % 0 in
20:28 76.6 °F 61.7 °F 30.1 in WSW 5.8 mph 5.8 mph 60 % 0 in
20:33 76.3 °F 61.9 °F 30.1 in SW 4.6 mph 4.6 mph 61 % 0 in
20:35 71.8 °F 64.6 °F 30.1 in SW 1 mph 2 mph 78 % 0 in
20:38 76.3 °F 61.9 °F 30.1 in SW 3.5 mph 3.5 mph 61 % 0 in
20:43 76.1 °F 61.7 °F 30.1 in South 4.6 mph 4.6 mph 61 % 0 in
20:45 71.6 °F 64.4 °F 30.1 in SW 1 mph 2 mph 78 % 0 in
20:48 75.9 °F 61.5 °F 30.1 in South 4.6 mph 4.6 mph 61 % 0 in
20:53 75.7 °F 61.3 °F 30.1 in SW 3.8 mph 3.8 mph 61 % 0 in
20:55 71.4 °F 64.6 °F 30.1 in SW 1 mph 2 mph 79 % 0 in
20:58 75.6 °F 61.5 °F 30.1 in WSW 3.5 mph 3.5 mph 62 % 0 in
21:03 75.4 °F 61.9 °F 30.1 in SW 3.6 mph 3.6 mph 63 % 0 in
21:05 71.2 °F 64.4 °F 30.1 in SW 1 mph 2 mph 79 % 0 in
21:08 75.2 °F 61.7 °F 30.1 in SW 3.5 mph 3.5 mph 63 % 0 in
21:13 75.2 °F 62.2 °F 30.1 in SW 3.5 mph 3.5 mph 64 % 0 in
21:15 71.1 °F 64.2 °F 30.1 in WSW 1 mph 2 mph 79 % 0 in
21:18 75 °F 62.4 °F 30.1 in SW 2.3 mph 2.3 mph 65 % 0 in
21:23 74.8 °F 62.2 °F 30.1 in South 3.5 mph 3.5 mph 65 % 0 in
21:25 71.1 °F 64.2 °F 30.1 in WSW 1 mph 2 mph 79 % 0 in
21:28 74.7 °F 62.4 °F 30.1 in SW 3.5 mph 3.5 mph 66 % 0 in
21:33 74.7 °F 63 °F 30.1 in SSW 2.4 mph 2.4 mph 67 % 0 in
21:35 71.2 °F 64.8 °F 30.1 in WSW 1 mph 2 mph 80 % 0 in
21:38 74.5 °F 62.8 °F 30.1 in SW 2.3 mph 2.3 mph 67 % 0 in
21:43 74.3 °F 63.1 °F 30.1 in SW 2.4 mph 2.4 mph 68 % 0 in
21:45 71.2 °F 64.8 °F 30.1 in West 1 mph 2 mph 80 % 0 in
21:48 74.3 °F 63.1 °F 30.1 in SW 2.3 mph 2.3 mph 68 % 0 in
21:53 74.1 °F 63 °F 30.1 in SW 2.3 mph 2.3 mph 68 % 0 in
21:55 71.2 °F 65.1 °F 30.1 in West 1 mph 3 mph 81 % 0 in
21:58 74.1 °F 63.3 °F 30.1 in SW 2.3 mph 2.3 mph 69 % 0 in
22:03 73.9 °F 63.1 °F 30.1 in SW 2.3 mph 2.3 mph 69 % 0 in
22:05 71.2 °F 65.1 °F 30.1 in Calm   2 mph 81 % 0 in
22:08 73.8 °F 63.3 °F 30.1 in SW 2.2 mph   70 % 0 in
22:13 73.8 °F 63.3 °F 30.1 in SSW 2.3 mph 2.3 mph 70 % 0 in
22:15 71.1 °F 65.3 °F 30.1 in Calm   2 mph 82 % 0 in
22:18 73.6 °F 63.1 °F 30.1 in SW 2.9 mph 2.9 mph 70 % 0 in
22:23 73.6 °F 63.7 °F 30.1 in SW 1.4 mph   71 % 0 in
22:25 70.9 °F 65.1 °F 30.1 in Calm     82 % 0 in
22:28 73.4 °F 63.3 °F 30.1 in SW 2.3 mph 2.3 mph 71 % 0 in
22:29 73.4 °F 63.3 °F 30.1 in SW 1.2 mph 1.2 mph 71 % 0 in
22:34 73.4 °F 63.9 °F 30.1 in SW 2.3 mph 2.3 mph 72 % 0 in
22:35 70.5 °F 64.8 °F 30.1 in Calm     82 % 0 in
22:39 73.2 °F 63.7 °F 30.1 in WSW 2.3 mph 2.3 mph 72 % 0 in
22:44 73.2 °F 64 °F 30.1 in SW 2.3 mph 2.3 mph 73 % 0 in
22:45 70.3 °F 64.9 °F 30.1 in Calm     83 % 0 in
22:49 73 °F 63.9 °F 30.1 in Calm     73 % 0 in
22:54 73 °F 63.9 °F 30.1 in Calm     73 % 0 in
22:55 69.8 °F 64.4 °F 30.1 in Calm   1 mph 83 % 0 in
22:59 73 °F 63.9 °F 30.1 in WSW 1.2 mph 1.4 mph 73 % 0 in
23:04 73.2 °F 64.4 °F 30.1 in WSW 1.2 mph 1.2 mph 74 % 0 in
23:05 69.6 °F 64.2 °F 30.1 in Calm   1 mph 83 % 0 in
23:09 73 °F 64.2 °F 30.1 in WSW 1.4 mph 1.4 mph 74 % 0 in
23:14 73 °F 64.2 °F 30.1 in Calm     74 % 0 in
23:15 69.3 °F 63.5 °F 30.1 in South 2 mph 2 mph 82 % 0 in
23:19 73 °F 64.6 °F 30.1 in Calm     75 % 0 in
23:24 72.9 °F 64.6 °F 30.1 in Calm     75 % 0 in
23:25 69.1 °F 63.7 °F 30.1 in Calm   3 mph 83 % 0 in
23:29 72.9 °F 64.6 °F 30.1 in SW 1.2 mph   75 % 0 in
23:34 72.7 °F 64.2 °F 30.1 in Calm     75 % 0 in
23:35 69.4 °F 64.4 °F 30.1 in Calm   1 mph 84 % 0 in
23:39 72.5 °F 64 °F 30.1 in SW 1.4 mph 1.4 mph 75 % 0 in
23:44 72.5 °F 64 °F 30.1 in WSW 1.2 mph   75 % 0 in
23:45 69.3 °F 64.6 °F 30.1 in Calm     85 % 0 in
23:49 72.5 °F 64.6 °F 30.1 in Calm     76 % 0 in
23:54 72.3 °F 64.2 °F 30.1 in SW 1.2 mph 1.2 mph 76 % 0 in
23:55 69.3 °F 64.6 °F 30.1 in SSE 2 mph 4 mph 85 % 0 in
23:59 72.3 °F 64.2 °F 30.1 in Calm     76 % 0 in
Meteo Sesrovires
Elogis d' Weather Underground - 4.25 mb

Guio original per  Jim McMurry - jmcmurry@mwt.net Adaptat per a la plantilla per  Wim van der Kuil - Leuven-Template.eu

Trobareu la nostra informacio del temps tambe a:

Weather Underground

AWEKAS